Time;durP1;ratioP1;P1;durP2;ratioP2;P2;SDS_P1;SDS_P2;PMS_P1;PMS_P2;Temp;Humidity;BMP_temperature;BMP_pressure;BME280_temperature;BME280_humidity;BME280_pressure;Samples;Min_cycle;Max_cycle;Signal;HPM_P1;HPM_P2
2021/04/02 00:01:08;;;;;;;4.88;3.30;;;21.40;47.20;;;;;;5080077;28;20024;-63
2021/04/02 00:03:38;;;;;;;5.25;3.10;;;21.40;47.20;;;;;;5073915;28;20028;-62
2021/04/02 00:06:10;;;;;;;5.93;3.08;;;21.40;47.10;;;;;;5092945;28;20024;-55
2021/04/02 00:08:35;;;;;;;4.10;2.67;;;21.40;47.30;;;;;;5093966;28;20043;-61
2021/04/02 00:11:03;;;;;;;4.95;2.78;;;21.40;47.50;;;;;;5083366;28;20393;-64
2021/04/02 00:13:31;;;;;;;4.93;2.75;;;21.40;47.40;;;;;;5082046;28;20090;-63
2021/04/02 00:15:57;;;;;;;6.25;3.20;;;21.40;47.30;;;;;;5090749;28;20028;-59
2021/04/02 00:18:25;;;;;;;6.40;2.88;;;21.40;47.40;;;;;;5073576;28;20117;-61
2021/04/02 00:20:51;;;;;;;5.35;3.40;;;21.40;47.50;;;;;;5088212;28;20024;-62
2021/04/02 00:23:17;;;;;;;6.20;3.30;;;21.40;47.20;;;;;;5083579;28;20106;-61
2021/04/02 00:25:43;;;;;;;3.88;2.63;;;21.40;47.30;;;;;;5073540;28;20043;-64
2021/04/02 00:28:09;;;;;;;5.75;3.28;;;21.30;47.20;;;;;;5072873;28;20037;-60
2021/04/02 00:30:41;;;;;;;6.88;2.95;;;21.40;47.40;;;;;;5092339;28;20039;-63
2021/04/02 00:33:07;;;;;;;;;;;21.40;47.20;;;;;;5087486;28;20100;-59
2021/04/02 00:35:33;;;;;;;4.50;2.85;;;21.40;47.40;;;;;;5080550;28;20092;-54
2021/04/02 00:37:59;;;;;;;6.35;2.83;;;21.40;47.40;;;;;;5079253;28;20036;-64
2021/04/02 00:40:31;;;;;;;4.72;2.80;;;21.30;47.30;;;;;;5093167;28;20063;-62
2021/04/02 00:42:58;;;;;;;6.00;3.38;;;21.30;47.30;;;;;;5082811;28;20024;-55
2021/04/02 00:45:24;;;;;;;6.13;2.97;;;21.40;47.30;;;;;;5089323;28;20032;-60
2021/04/02 00:47:50;;;;;;;6.30;3.17;;;21.40;47.30;;;;;;5083188;28;20461;-63
2021/04/02 00:50:35;;;;;;;5.75;3.42;;;21.40;47.30;;;;;;5093087;28;20032;-60
2021/04/02 00:53:01;;;;;;;6.97;2.85;;;21.40;47.30;;;;;;5093293;28;20027;-61
2021/04/02 00:55:26;;;;;;;4.40;3.40;;;21.40;47.20;;;;;;5079861;28;20449;-64
2021/04/02 00:57:52;;;;;;;4.57;3.40;;;21.40;47.30;;;;;;5073639;28;20041;-64
2021/04/02 01:00:19;;;;;;;5.25;3.03;;;21.40;47.30;;;;;;5088634;28;20514;-61
2021/04/02 01:02:45;;;;;;;6.30;3.42;;;21.40;47.30;;;;;;5093788;28;20052;-59
2021/04/02 01:05:18;;;;;;;4.88;3.33;;;21.30;47.10;;;;;;5077153;28;20078;-64
2021/04/02 01:07:50;;;;;;;6.25;3.60;;;21.40;47.30;;;;;;5085561;28;20067;-63
2021/04/02 01:10:17;;;;;;;3.42;2.53;;;21.40;47.20;;;;;;5093247;28;20107;-62
2021/04/02 01:12:44;;;;;;;5.28;2.72;;;21.30;47.20;;;;;;5080228;28;20044;-62
2021/04/02 01:15:23;;;;;;;5.57;3.17;;;21.30;47.10;;;;;;5073305;28;20051;-60
2021/04/02 01:17:51;;;;;;;4.90;2.97;;;21.40;47.30;;;;;;5088516;28;20051;-65
2021/04/02 01:20:20;;;;;;;6.15;3.20;;;21.30;47.20;;;;;;5073743;28;20074;-61
2021/04/02 01:22:46;;;;;;;6.03;3.72;;;21.30;47.20;;;;;;5072978;28;20028;-62
2021/04/02 01:25:37;;;;;;;4.22;2.63;;;21.40;47.20;;;;;;5085466;28;20381;-63
2021/04/02 01:28:20;;;;;;;7.18;4.10;;;21.30;47.20;;;;;;5092338;28;20067;-64
2021/04/02 01:30:46;;;;;;;4.47;2.60;;;21.30;47.20;;;;;;5083067;28;20027;-62
2021/04/02 01:33:13;;;;;;;4.55;2.47;;;21.30;47.10;;;;;;5090934;28;20029;-52
2021/04/02 01:35:41;;;;;;;4.13;2.80;;;21.30;47.20;;;;;;5091766;28;20039;-54
2021/04/02 01:38:30;;;;;;;4.20;2.80;;;21.30;47.10;;;;;;5075744;28;20473;-64
2021/04/02 01:40:59;;;;;;;4.85;2.50;;;21.30;47.10;;;;;;5073121;28;20028;-59
2021/04/02 01:43:37;;;;;;;6.40;2.70;;;21.30;47.10;;;;;;5071953;28;20056;-58
2021/04/02 01:46:05;;;;;;;6.20;2.90;;;21.30;47.00;;;;;;5080751;28;20532;-63
2021/04/02 01:48:33;;;;;;;3.75;2.28;;;21.30;47.10;;;;;;5073989;28;20366;-64
2021/04/02 01:51:01;;;;;;;5.00;2.78;;;21.30;47.10;;;;;;5073261;28;20418;-62
2021/04/02 01:53:32;;;;;;;3.53;2.30;;;21.30;47.00;;;;;;5087626;28;20491;-56
2021/04/02 01:55:58;;;;;;;4.18;2.45;;;21.30;47.10;;;;;;5080111;28;20430;-63
2021/04/02 01:58:24;;;;;;;4.60;2.50;;;21.30;47.00;;;;;;5077455;28;20115;-61
2021/04/02 02:00:54;;;;;;;4.05;2.70;;;21.30;46.90;;;;;;5084701;28;20021;-52
2021/04/02 02:03:22;;;;;;;4.03;2.47;;;21.30;47.00;;;;;;5091701;28;20154;-60
2021/04/02 02:05:48;;;;;;;3.47;2.67;;;21.30;47.00;;;;;;5091991;28;20036;-59
2021/04/02 02:08:20;;;;;;;3.55;2.60;;;21.30;46.90;;;;;;5091684;28;20504;-61
2021/04/02 02:10:47;;;;;;;3.88;2.35;;;21.30;47.00;;;;;;5085941;28;20030;-63
2021/04/02 02:13:13;;;;;;;3.15;2.28;;;21.30;47.00;;;;;;5072646;28;20115;-63
2021/04/02 02:15:41;;;;;;;4.85;2.28;;;21.30;47.00;;;;;;5079391;28;20115;-63
2021/04/02 02:18:13;;;;;;;3.67;2.20;;;21.30;47.10;;;;;;5071687;28;20040;-55
2021/04/02 02:20:42;;;;;;;3.55;1.88;;;21.30;46.90;;;;;;5088443;28;20077;-63
2021/04/02 02:23:09;;;;;;;3.80;2.40;;;21.30;46.90;;;;;;5091462;28;20059;-62
2021/04/02 02:25:35;;;;;;;3.58;2.40;;;21.30;46.90;;;;;;5083573;28;20024;-61
2021/04/02 02:28:01;;;;;;;4.60;2.20;;;21.30;46.90;;;;;;5071990;28;20082;-64
2021/04/02 02:30:29;;;;;;;7.35;2.33;;;21.30;46.90;;;;;;5071231;28;20473;-54
2021/04/02 02:32:56;;;;;;;5.20;2.22;;;21.30;46.90;;;;;;5074581;28;20090;-64
2021/04/02 02:35:23;;;;;;;3.35;2.42;;;21.30;47.00;;;;;;5091322;28;20047;-62
2021/04/02 02:37:51;;;;;;;2.80;1.92;;;21.30;46.90;;;;;;5084509;28;20610;-63
2021/04/02 02:40:26;;;;;;;4.38;2.10;;;21.30;47.00;;;;;;5071666;28;20545;-64
2021/04/02 02:42:54;;;;;;;3.33;1.95;;;21.30;47.00;;;;;;5078101;28;20043;-64
2021/04/02 02:45:20;;;;;;;2.85;1.83;;;21.30;46.90;;;;;;5074720;28;20362;-52
2021/04/02 02:47:46;;;;;;;3.30;2.03;;;21.30;46.90;;;;;;5079242;28;20074;-61
2021/04/02 02:50:20;;;;;;;4.43;2.08;;;21.30;46.80;;;;;;5078586;28;20032;-64
2021/04/02 02:52:48;;;;;;;2.85;1.90;;;21.30;46.90;;;;;;5069901;28;20051;-62
2021/04/02 02:55:15;;;;;;;4.03;2.03;;;21.30;46.90;;;;;;5077245;28;20024;-61
2021/04/02 02:57:44;;;;;;;2.60;1.73;;;21.30;46.80;;;;;;5072368;28;20041;-62
2021/04/02 03:00:18;;;;;;;2.65;1.80;;;21.30;47.50;;;;;;5071577;28;20358;-63
2021/04/02 03:02:46;;;;;;;2.90;2.00;;;21.30;46.80;;;;;;5078647;28;20028;-58
2021/04/02 03:05:15;;;;;;;4.78;2.20;;;21.30;46.70;;;;;;5078516;28;20028;-62
2021/04/02 03:07:43;;;;;;;4.60;2.10;;;21.30;46.80;;;;;;5070499;28;20036;-62
2021/04/02 03:10:10;;;;;;;2.90;2.08;;;21.30;46.80;;;;;;5084596;28;20385;-64
2021/04/02 03:12:38;;;;;;;3.17;1.60;;;21.30;46.70;;;;;;5070577;28;20041;-64
2021/04/02 03:15:06;;;;;;;3.00;1.90;;;21.30;46.90;;;;;;5084958;28;20423;-63
2021/04/02 03:17:34;;;;;;;4.00;1.90;;;21.30;46.80;;;;;;5078026;28;20036;-56
2021/04/02 03:20:01;;;;;;;3.20;1.60;;;21.20;46.70;;;;;;5072190;28;20024;-65
2021/04/02 03:22:29;;;;;;;3.78;1.98;;;21.30;46.70;;;;;;5072217;28;20111;-61
2021/04/02 03:24:58;;;;;;;3.83;1.92;;;21.30;46.70;;;;;;5091139;28;20064;-64
2021/04/02 03:27:28;;;;;;;2.70;1.70;;;21.30;46.70;;;;;;5087473;28;20085;-62
2021/04/02 03:29:54;;;;;;;2.83;1.63;;;21.30;46.70;;;;;;5075405;28;20444;-63
2021/04/02 03:32:23;;;;;;;2.80;1.55;;;21.30;46.70;;;;;;5084425;28;20028;-58
2021/04/02 03:34:52;;;;;;;2.97;1.70;;;21.30;46.70;;;;;;5071872;28;20029;-59
2021/04/02 03:37:18;;;;;;;2.80;1.75;;;21.30;47.30;;;;;;5083787;28;20048;-60
2021/04/02 03:39:46;;;;;;;2.85;2.10;;;21.30;46.70;;;;;;5082140;28;20059;-64
2021/04/02 03:42:14;;;;;;;2.85;1.55;;;21.30;46.70;;;;;;5079291;28;20120;-65
2021/04/02 03:44:42;;;;;;;2.92;1.48;;;21.20;46.50;;;;;;5079272;28;20432;-57
2021/04/02 03:47:17;;;;;;;2.90;2.17;;;21.30;46.60;;;;;;5073385;28;20466;-58
2021/04/02 03:49:44;;;;;;;2.35;1.60;;;21.30;46.60;;;;;;5086429;28;20197;-61
2021/04/02 03:52:14;;;;;;;3.05;1.77;;;21.30;46.60;;;;;;5070869;28;20108;-65
2021/04/02 03:54:42;;;;;;;2.67;1.40;;;21.30;46.60;;;;;;5078590;28;20055;-64
2021/04/02 03:57:11;;;;;;;2.75;1.92;;;21.30;46.60;;;;;;5084524;28;20032;-62
2021/04/02 03:59:39;;;;;;;2.25;1.70;;;21.20;46.50;;;;;;5089406;28;20039;-58
2021/04/02 04:02:07;;;;;;;3.35;1.80;;;21.20;46.40;;;;;;5081864;28;20071;-63
2021/04/02 04:04:33;;;;;;;4.28;1.55;;;21.30;46.50;;;;;;5089538;28;20082;-64
2021/04/02 04:07:02;;;;;;;3.22;1.65;;;21.30;46.40;;;;;;5081372;28;20032;-63
2021/04/02 04:09:29;;;;;;;2.70;2.10;;;21.30;46.50;;;;;;5076184;28;20111;-64
2021/04/02 04:11:57;;;;;;;2.25;1.65;;;21.30;46.50;;;;;;5070518;28;20048;-65
2021/04/02 04:14:23;;;;;;;3.05;2.10;;;21.20;46.30;;;;;;5075009;28;20028;-60
2021/04/02 04:16:49;;;;;;;2.75;1.65;;;21.20;46.40;;;;;;5089586;28;20114;-63
2021/04/02 04:19:18;;;;;;;3.70;1.65;;;21.20;46.30;;;;;;5076019;28;20040;-65
2021/04/02 04:21:45;;;;;;;3.00;1.95;;;21.20;46.30;;;;;;5087077;28;20133;-64
2021/04/02 04:24:17;;;;;;;2.47;1.60;;;21.20;46.20;;;;;;5083112;28;20028;-62
2021/04/02 04:26:45;;;;;;;3.33;1.30;;;21.20;46.20;;;;;;5084454;28;20029;-64
2021/04/02 04:29:27;;;;;;;2.88;1.42;;;21.20;46.30;;;;;;5084151;28;20119;-65
2021/04/02 04:31:54;;;;;;;2.70;1.90;;;21.20;46.30;;;;;;5086218;28;20028;-55
2021/04/02 04:34:21;;;;;;;2.03;1.30;;;21.20;46.20;;;;;;5081794;28;20020;-63
2021/04/02 04:36:47;;;;;;;2.83;1.60;;;21.30;46.30;;;;;;5084569;28;20284;-63
2021/04/02 04:39:14;;;;;;;2.40;1.45;;;21.20;46.20;;;;;;5081848;28;20167;-63
2021/04/02 04:41:42;;;;;;;2.35;1.30;;;21.20;46.20;;;;;;5080793;28;20035;-65
2021/04/02 04:44:09;;;;;;;1.83;1.10;;;21.20;46.80;;;;;;5080880;28;20379;-63
2021/04/02 04:46:35;;;;;;;2.33;1.42;;;21.20;46.20;;;;;;5083992;28;20039;-63
2021/04/02 04:49:01;;;;;;;2.10;1.42;;;21.20;46.20;;;;;;5084617;28;20028;-64
2021/04/02 04:51:30;;;;;;;2.83;1.33;;;21.20;46.10;;;;;;5083935;28;20040;-61
2021/04/02 04:53:59;;;;;;;1.95;1.25;;;21.20;46.10;;;;;;5084125;28;20070;-53
2021/04/02 04:56:29;;;;;;;2.03;1.20;;;21.20;46.10;;;;;;5084977;28;20120;-60
2021/04/02 04:59:03;;;;;;;1.30;0.95;;;21.20;46.20;;;;;;5084270;28;20036;-63
2021/04/02 05:01:51;;;;;;;3.20;1.25;;;21.20;46.10;;;;;;5084965;28;20052;-64
2021/04/02 05:04:17;;;;;;;3.03;1.50;;;21.20;46.00;;;;;;5085938;28;20020;-59
2021/04/02 05:06:45;;;;;;;1.55;1.33;;;21.20;46.00;;;;;;5078794;28;20477;-64
2021/04/02 05:09:11;;;;;;;3.40;1.38;;;21.20;46.10;;;;;;5082905;28;20040;-63
2021/04/02 05:11:39;;;;;;;1.52;1.10;;;21.20;46.00;;;;;;5082283;28;20097;-59
2021/04/02 05:14:07;;;;;;;1.95;1.17;;;21.20;45.90;;;;;;5084342;28;20051;-63
2021/04/02 05:16:34;;;;;;;1.73;1.23;;;21.20;45.80;;;;;;5083272;28;20028;-63
2021/04/02 05:19:01;;;;;;;5.78;2.30;;;21.20;45.80;;;;;;5084036;28;20062;-65
2021/04/02 05:21:27;;;;;;;1.20;1.02;;;21.20;45.80;;;;;;5085936;28;20024;-58
2021/04/02 05:23:53;;;;;;;3.47;1.33;;;21.20;45.90;;;;;;5083228;28;20077;-63
2021/04/02 05:26:20;;;;;;;2.05;1.25;;;21.20;45.80;;;;;;5080382;28;20037;-63
2021/04/02 05:28:48;;;;;;;2.67;1.10;;;21.20;45.80;;;;;;5081373;28;20040;-65
2021/04/02 05:31:14;;;;;;;3.55;1.17;;;21.20;45.80;;;;;;5080125;28;20020;-63
2021/04/02 05:33:40;;;;;;;2.33;1.20;;;21.20;45.70;;;;;;5077523;28;20035;-65
2021/04/02 05:36:06;;;;;;;2.47;1.15;;;21.20;45.70;;;;;;5082214;28;20430;-63
2021/04/02 05:38:31;;;;;;;1.45;1.20;;;21.20;45.70;;;;;;5083277;28;20477;-63
2021/04/02 05:41:02;;;;;;;3.95;1.33;;;21.20;45.70;;;;;;5081036;28;20099;-53
2021/04/02 05:43:40;;;;;;;1.90;1.10;;;21.20;45.60;;;;;;5084112;28;20040;-60
2021/04/02 05:46:07;;;;;;;3.05;1.50;;;21.20;45.60;;;;;;5082591;28;20492;-63
2021/04/02 05:48:33;;;;;;;3.33;1.25;;;21.20;45.60;;;;;;5084910;28;20096;-63
2021/04/02 05:50:59;;;;;;;1.30;0.70;;;21.20;45.60;;;;;;5078438;28;20032;-64
2021/04/02 05:53:29;;;;;;;2.67;1.00;;;21.20;45.60;;;;;;5080981;28;20115;-61
2021/04/02 05:55:55;;;;;;;2.83;1.15;;;21.20;45.60;;;;;;5078416;28;20035;-63
2021/04/02 05:58:21;;;;;;;2.75;1.00;;;21.20;45.60;;;;;;5072712;28;20111;-64
2021/04/02 06:00:47;;;;;;;4.00;1.27;;;21.20;45.60;;;;;;5073655;28;20296;-57
2021/04/02 06:03:17;;;;;;;2.75;1.20;;;21.20;45.70;;;;;;5081603;28;20024;-61
2021/04/02 06:05:43;;;;;;;4.50;1.63;;;21.20;45.70;;;;;;5079865;28;20048;-61
2021/04/02 06:08:11;;;;;;;5.82;2.38;;;21.10;38.60;;;;;;5078686;28;20103;-59
2021/04/02 06:10:37;;;;;;;6.50;1.92;;;20.50;34.50;;;;;;5084006;28;20027;-61
2021/04/02 06:13:03;;;;;;;7.30;2.40;;;20.00;35.30;;;;;;5080282;28;20048;-59
2021/04/02 06:15:32;;;;;;;5.00;2.35;;;19.60;34.60;;;;;;5081292;28;20024;-63
2021/04/02 06:18:06;;;;;;;4.07;1.65;;;19.50;35.30;;;;;;5082375;28;20059;-57
2021/04/02 06:20:41;;;;;;;3.80;1.45;;;20.00;35.80;;;;;;5079891;28;20035;-59
2021/04/02 06:23:08;;;;;;;2.95;1.42;;;20.30;36.50;;;;;;5079806;28;20137;-59
2021/04/02 06:25:35;;;;;;;4.07;1.40;;;20.50;37.80;;;;;;5080768;28;20460;-62
2021/04/02 06:28:08;;;;;;;6.30;1.50;;;20.60;38.90;;;;;;5078968;28;20024;-60
2021/04/02 06:30:38;;;;;;;7.70;1.83;;;20.70;39.50;;;;;;5079907;28;20024;-61
2021/04/02 06:33:07;;;;;;;5.65;1.30;;;20.80;39.50;;;;;;5081043;28;20485;-60
2021/04/02 06:35:35;;;;;;;2.70;1.00;;;20.80;40.10;;;;;;5083600;28;20533;-53
2021/04/02 06:38:01;;;;;;;6.15;1.40;;;20.90;40.60;;;;;;5079311;28;20056;-59
2021/04/02 06:40:30;;;;;;;5.53;1.10;;;20.90;41.70;;;;;;5077042;28;20058;-62
2021/04/02 06:42:58;;;;;;;3.85;1.45;;;20.90;42.20;;;;;;5082551;28;20414;-61
2021/04/02 06:45:24;;;;;;;6.00;1.15;;;21.00;42.40;;;;;;5080673;28;20039;-55
2021/04/02 06:47:49;;;;;;;7.18;1.20;;;21.00;42.80;;;;;;5080520;28;20040;-58
2021/04/02 06:50:24;;;;;;;7.47;1.20;;;21.00;42.80;;;;;;5078219;28;20053;-50
2021/04/02 06:52:55;;;;;;;3.50;1.10;;;21.00;43.00;;;;;;5071433;28;20020;-56
2021/04/02 06:55:23;;;;;;;5.57;1.30;;;21.00;43.00;;;;;;5086432;28;20036;-56
2021/04/02 06:57:52;;;;;;;5.45;1.10;;;21.00;43.30;;;;;;5074247;28;20098;-58
2021/04/02 07:00:25;;;;;;;5.10;1.00;;;21.00;43.40;;;;;;5076927;28;20073;-57
2021/04/02 07:02:52;;;;;;;6.93;1.15;;;21.00;43.80;;;;;;5071727;28;20028;-57
2021/04/02 07:05:20;;;;;;;5.38;1.10;;;21.10;44.10;;;;;;5082221;28;20032;-58
2021/04/02 07:07:51;;;;;;;4.22;1.10;;;21.10;44.30;;;;;;5071092;28;20616;-54
2021/04/02 07:10:20;;;;;;;4.18;1.10;;;21.10;44.40;;;;;;5074818;28;20102;-59
2021/04/02 07:12:49;;;;;;;8.15;0.90;;;21.20;45.20;;;;;;5089086;28;20040;-56
2021/04/02 07:15:17;;;;;;;4.57;0.90;;;21.20;45.30;;;;;;5090633;28;20024;-58
2021/04/02 07:17:44;;;;;;;9.25;1.63;;;21.20;45.40;;;;;;5084520;28;20226;-53
2021/04/02 07:20:11;;;;;;;3.05;1.02;;;21.30;46.60;;;;;;5089986;28;20020;-59
2021/04/02 07:22:39;;;;;;;10.50;2.08;;;21.30;46.20;;;;;;5071013;28;20036;-54
2021/04/02 07:25:06;;;;;;;10.18;1.55;;;21.30;46.10;;;;;;5089193;28;20032;-57
2021/04/02 07:27:33;;;;;;;10.48;1.10;;;21.40;46.70;;;;;;5081026;28;20067;-55
2021/04/02 07:29:59;;;;;;;4.50;1.90;;;21.40;46.80;;;;;;5074523;28;20028;-54
2021/04/02 07:32:25;;;;;;;3.40;1.48;;;21.40;47.00;;;;;;5091656;28;20346;-59
2021/04/02 07:34:52;;;;;;;9.95;1.50;;;21.30;45.60;;;;;;5085324;28;20033;-59
2021/04/02 07:37:18;;;;;;;9.35;2.17;;;21.30;46.20;;;;;;5072479;28;20020;-58
2021/04/02 07:39:48;;;;;;;6.85;1.38;;;21.30;46.20;;;;;;5073673;28;20024;-60
2021/04/02 07:42:14;;;;;;;7.05;1.92;;;21.30;45.60;;;;;;5088288;28;20028;-60
2021/04/02 07:44:45;;;;;;;5.53;1.20;;;21.30;46.00;;;;;;5084800;28;20128;-58
2021/04/02 07:47:13;;;;;;;6.55;1.10;;;21.30;46.20;;;;;;5089044;28;20031;-57
2021/04/02 07:50:00;;;;;;;5.43;1.20;;;21.40;46.40;;;;;;5082979;28;20107;-59
2021/04/02 07:52:55;;;;;;;8.60;1.23;;;21.30;46.10;;;;;;5092640;28;20028;-57
2021/04/02 07:55:21;;;;;;;5.60;1.60;;;21.40;46.20;;;;;;5080601;28;20045;-59
2021/04/02 07:57:52;;;;;;;6.35;1.20;;;21.40;46.30;;;;;;5090854;28;20474;-59
2021/04/02 08:00:22;;;;;;;4.80;1.02;;;21.40;46.30;;;;;;5080971;28;20024;-58
2021/04/02 08:03:08;;;;;;;9.70;1.60;;;21.40;46.30;;;;;;5075000;28;20032;-58
2021/04/02 08:05:34;;;;;;;7.53;1.00;;;21.40;46.60;;;;;;5074220;28;20031;-58
2021/04/02 08:07:59;;;;;;;7.32;1.15;;;21.40;46.50;;;;;;5085479;28;20599;-56
2021/04/02 08:10:25;;;;;;;4.15;0.93;;;21.40;46.40;;;;;;5080497;28;20493;-55
2021/04/02 08:12:51;;;;;;;3.97;1.00;;;21.40;46.30;;;;;;5091424;28;20051;-56
2021/04/02 08:15:17;;;;;;;4.68;1.05;;;21.40;46.10;;;;;;5092498;28;20035;-56
2021/04/02 08:17:48;;;;;;;5.10;1.30;;;21.40;46.30;;;;;;5079021;28;20401;-56
2021/04/02 08:20:17;;;;;;;5.95;1.08;;;21.30;46.20;;;;;;5084090;28;20107;-51
2021/04/02 08:22:44;;;;;;;4.72;0.90;;;21.30;46.10;;;;;;5088482;28;20024;-58
2021/04/02 08:25:12;;;;;;;5.53;1.55;;;21.40;46.20;;;;;;5078815;28;20020;-58
2021/04/02 08:27:39;;;;;;;5.45;1.08;;;21.30;46.10;;;;;;5084132;28;20036;-58
2021/04/02 08:30:07;;;;;;;6.63;1.30;;;21.30;46.30;;;;;;5084427;28;20056;-58
2021/04/02 08:32:46;;;;;;;4.60;1.13;;;21.30;46.20;;;;;;5075491;28;20047;-54
2021/04/02 08:35:14;;;;;;;7.15;1.35;;;21.30;46.20;;;;;;5093652;28;20031;-59
2021/04/02 08:38:00;;;;;;;12.55;1.58;;;21.30;46.40;;;;;;5091744;28;20082;-59
2021/04/02 08:40:26;;;;;;;6.10;1.27;;;21.40;46.20;;;;;;5094218;28;20217;-60
2021/04/02 08:43:07;;;;;;;5.30;1.20;;;21.30;46.20;;;;;;5093296;28;20119;-60
2021/04/02 08:45:37;;;;;;;8.73;1.60;;;21.40;46.20;;;;;;5093707;28;20028;-59
2021/04/02 08:48:05;;;;;;;15.52;1.50;;;21.40;46.10;;;;;;5093545;28;20081;-59
2021/04/02 08:50:31;;;;;;;18.00;1.63;;;21.30;46.50;;;;;;5075420;28;20028;-59
2021/04/02 08:53:05;;;;;;;10.88;1.40;;;21.40;46.40;;;;;;5073482;28;20024;-59
2021/04/02 08:55:31;;;;;;;9.45;1.60;;;21.30;46.30;;;;;;5074677;28;20374;-61
2021/04/02 08:57:57;;;;;;;10.25;2.22;;;21.30;46.50;;;;;;5079020;28;20043;-58
2021/04/02 09:00:24;;;;;;;6.00;1.02;;;21.40;46.30;;;;;;5092031;28;20032;-59
2021/04/02 09:02:50;;;;;;;5.15;1.50;;;21.30;46.50;;;;;;5080169;28;20082;-59
2021/04/02 09:05:16;;;;;;;10.73;1.77;;;21.40;46.50;;;;;;5073730;28;20374;-58
2021/04/02 09:07:42;;;;;;;7.90;1.50;;;21.40;47.10;;;;;;5088511;28;20053;-55
2021/04/02 09:10:14;;;;;;;10.63;1.85;;;21.40;46.80;;;;;;5093273;28;20028;-55
2021/04/02 09:12:48;;;;;;;4.18;1.98;;;21.40;46.60;;;;;;5086241;28;20106;-59
2021/04/02 09:15:22;;;;;;;8.43;1.33;;;21.40;46.60;;;;;;5091250;28;20032;-60
2021/04/02 09:17:48;;;;;;;10.88;1.40;;;21.40;46.70;;;;;;5091185;28;20043;-60
2021/04/02 09:20:15;;;;;;;8.65;2.72;;;21.30;46.60;;;;;;5092153;28;20477;-60
2021/04/02 09:22:44;;;;;;;8.90;1.60;;;21.30;46.30;;;;;;5089435;28;20029;-60
2021/04/02 09:25:15;;;;;;;9.45;1.60;;;21.40;46.40;;;;;;5080303;28;20393;-60
2021/04/02 09:27:41;;;;;;;5.57;1.55;;;21.40;46.30;;;;;;5091718;28;20442;-60
2021/04/02 09:30:07;;;;;;;5.05;1.50;;;21.30;46.20;;;;;;5079703;28;20107;-60
2021/04/02 09:32:34;;;;;;;7.50;1.50;;;21.30;45.90;;;;;;5081916;28;20465;-60
2021/04/02 09:35:02;;;;;;;7.18;1.20;;;21.30;45.80;;;;;;5089781;28;20060;-60
2021/04/02 09:37:30;;;;;;;9.07;1.48;;;21.30;45.70;;;;;;5078663;28;20115;-60
2021/04/02 09:40:14;;;;;;;7.22;1.80;;;21.30;45.70;;;;;;5090381;28;20031;-59
2021/04/02 09:42:39;;;;;;;4.57;1.10;;;21.30;45.70;;;;;;5091693;28;20495;-60
2021/04/02 09:45:10;;;;;;;7.85;1.52;;;21.30;45.70;;;;;;5091749;28;20028;-60
2021/04/02 09:47:44;;;;;;;14.02;2.30;;;21.30;45.90;;;;;;5092360;28;20111;-57
2021/04/02 09:50:12;;;;;;;10.50;1.48;;;21.30;45.90;;;;;;5080535;28;20051;-57
2021/04/02 09:52:39;;;;;;;11.65;1.50;;;21.30;45.90;;;;;;5072236;28;20024;-56
2021/04/02 09:55:06;;;;;;;4.53;1.55;;;21.40;46.10;;;;;;5083448;28;20055;-50
2021/04/02 09:57:32;;;;;;;11.80;1.58;;;21.40;46.00;;;;;;5083712;28;20050;-47
2021/04/02 09:59:58;;;;;;;12.13;1.60;;;21.40;46.00;;;;;;5091613;28;20028;-59
2021/04/02 10:02:24;;;;;;;7.68;1.52;;;21.40;46.20;;;;;;5081931;28;20029;-58
2021/04/02 10:04:50;;;;;;;4.15;1.27;;;21.40;46.50;;;;;;5071912;28;20032;-55
2021/04/02 10:07:15;;;;;;;15.00;1.60;;;21.40;46.30;;;;;;5072861;28;20040;-58
2021/04/02 10:09:41;;;;;;;15.32;2.58;;;21.40;46.70;;;;;;5090958;28;20475;-58
2021/04/02 10:12:07;;;;;;;6.85;1.30;;;21.40;46.80;;;;;;5090824;28;20055;-57
2021/04/02 10:14:33;;;;;;;6.90;1.80;;;21.40;46.90;;;;;;5075644;28;20065;-58
2021/04/02 10:16:59;;;;;;;10.15;2.33;;;21.40;47.30;;;;;;5080728;28;20395;-58
2021/04/02 10:19:25;;;;;;;6.80;1.30;;;21.50;47.30;;;;;;5077938;28;20044;-57
2021/04/02 10:21:51;;;;;;;10.23;1.80;;;21.50;47.50;;;;;;5084822;28;20020;-55
2021/04/02 10:24:16;;;;;;;14.05;1.80;;;21.50;47.60;;;;;;5091520;28;20059;-53
2021/04/02 10:26:47;;;;;;;10.70;1.55;;;21.50;47.40;;;;;;5088477;28;20051;-55
2021/04/02 10:29:13;;;;;;;7.77;1.43;;;21.40;47.20;;;;;;5072292;28;20037;-58
2021/04/02 10:31:39;;;;;;;12.60;2.55;;;21.50;47.20;;;;;;5071763;28;20062;-49
2021/04/02 10:34:04;;;;;;;8.82;1.65;;;21.50;47.20;;;;;;5084236;28;20024;-57
2021/04/02 10:36:30;;;;;;;17.90;1.70;;;21.40;47.10;;;;;;5077091;28;20025;-54
2021/04/02 10:38:56;;;;;;;12.43;1.48;;;21.40;47.00;;;;;;5075763;28;20086;-55
2021/04/02 10:41:21;;;;;;;9.68;1.58;;;21.40;47.80;;;;;;5075661;28;20106;-55
2021/04/02 10:43:47;;;;;;;8.35;1.50;;;21.40;47.20;;;;;;5090922;28;20414;-54
2021/04/02 10:46:13;;;;;;;13.82;2.15;;;21.40;47.30;;;;;;5079703;28;20037;-54
2021/04/02 10:48:39;;;;;;;10.43;2.15;;;21.50;47.40;;;;;;5078310;28;20037;-57
2021/04/02 10:51:05;;;;;;;10.63;1.92;;;21.50;47.50;;;;;;5080160;28;20025;-56
2021/04/02 10:53:31;;;;;;;13.30;2.40;;;21.40;47.60;;;;;;5082279;28;20465;-53
2021/04/02 10:56:03;;;;;;;12.75;2.40;;;21.30;46.00;;;;;;5091306;28;20613;-50
2021/04/02 10:58:29;;;;;;;9.20;3.78;;;21.20;46.10;;;;;;5073615;28;20052;-58
2021/04/02 11:00:55;;;;;;;7.82;2.50;;;20.90;38.70;;;;;;5082774;28;20123;-48
2021/04/02 11:03:21;;;;;;;6.43;1.98;;;21.00;43.70;;;;;;5083917;28;20119;-48
2021/04/02 11:05:46;;;;;;;6.30;2.03;;;21.10;44.10;;;;;;5065921;28;20036;-56
2021/04/02 11:08:12;;;;;;;19.65;2.28;;;21.20;43.80;;;;;;5071646;28;20035;-52
2021/04/02 11:10:38;;;;;;;6.45;1.65;;;21.20;43.60;;;;;;5077880;28;20032;-55
2021/04/02 11:13:04;;;;;;;11.77;1.95;;;21.20;43.80;;;;;;5069957;28;20044;-54
2021/04/02 11:15:29;;;;;;;9.55;2.17;;;21.30;44.10;;;;;;5070400;28;20028;-53
2021/04/02 11:17:55;;;;;;;6.15;1.40;;;21.30;44.30;;;;;;5070211;28;20090;-47
2021/04/02 11:20:25;;;;;;;10.48;1.95;;;21.30;44.50;;;;;;5074460;28;20024;-58
2021/04/02 11:22:51;;;;;;;8.25;1.70;;;21.30;44.70;;;;;;5074123;28;20046;-56
2021/04/02 11:25:16;;;;;;;11.50;1.80;;;21.30;44.70;;;;;;5072766;28;20032;-52
2021/04/02 11:27:43;;;;;;;13.30;2.10;;;21.30;45.10;;;;;;5081906;28;20051;-50
2021/04/02 11:30:11;;;;;;;23.38;2.28;;;21.30;45.10;;;;;;5097104;28;20028;-55
2021/04/02 11:32:37;;;;;;;9.15;1.92;;;21.30;45.30;;;;;;5097350;28;20020;-54
2021/04/02 11:35:04;;;;;;;17.80;1.88;;;21.30;45.20;;;;;;5080988;28;20036;-48
2021/04/02 11:37:30;;;;;;;11.65;2.03;;;21.30;45.20;;;;;;5096125;28;20064;-52
2021/04/02 11:39:55;;;;;;;8.88;1.83;;;21.30;45.40;;;;;;5091605;28;21764;-57
2021/04/02 11:42:21;;;;;;;10.93;1.40;;;21.30;45.40;;;;;;5078023;28;20016;-53
2021/04/02 11:44:47;;;;;;;14.02;1.75;;;21.30;45.60;;;;;;5079194;28;20042;-55
2021/04/02 11:47:12;;;;;;;21.77;1.90;;;21.30;45.80;;;;;;5093420;28;20043;-55
2021/04/02 11:49:38;;;;;;;8.50;1.58;;;21.40;45.70;;;;;;5097237;28;20070;-52
2021/04/02 11:52:06;;;;;;;7.00;1.52;;;21.30;46.20;;;;;;5085111;28;20070;-55
2021/04/02 11:54:31;;;;;;;7.85;1.50;;;21.40;45.80;;;;;;5077174;28;20032;-53
2021/04/02 11:56:57;;;;;;;24.35;2.28;;;21.30;45.80;;;;;;5076284;28;20111;-53
2021/04/02 11:59:23;;;;;;;5.40;1.23;;;21.40;46.00;;;;;;5087930;28;20036;-55
2021/04/02 12:01:48;;;;;;;11.38;1.63;;;21.40;46.10;;;;;;5079041;28;20458;-56
2021/04/02 12:04:14;;;;;;;7.55;1.63;;;21.40;46.20;;;;;;5077877;28;20449;-54
2021/04/02 12:06:41;;;;;;;9.93;1.60;;;21.40;46.20;;;;;;5088307;28;20054;-57
2021/04/02 12:09:07;;;;;;;9.93;1.75;;;21.30;46.50;;;;;;5095133;28;20059;-58
2021/04/02 12:11:33;;;;;;;7.90;1.50;;;21.40;46.50;;;;;;5088190;28;20044;-58
2021/04/02 12:13:59;;;;;;;12.23;2.00;;;21.40;46.30;;;;;;5089079;28;20042;-53
2021/04/02 12:16:25;;;;;;;7.38;1.60;;;21.40;46.50;;;;;;5087135;28;20107;-51
2021/04/02 12:18:51;;;;;;;8.75;1.50;;;21.40;46.60;;;;;;5076189;28;20482;-58
2021/04/02 12:21:17;;;;;;;7.82;1.90;;;21.30;46.60;;;;;;5077698;28;20492;-58
2021/04/02 12:23:43;;;;;;;13.40;1.70;;;21.40;46.60;;;;;;5082600;28;20032;-58
2021/04/02 12:26:09;;;;;;;12.43;1.70;;;21.40;47.10;;;;;;5076017;28;20059;-57
2021/04/02 12:28:34;;;;;;;7.10;1.30;;;21.40;47.00;;;;;;5075827;28;20030;-55
2021/04/02 12:31:01;;;;;;;11.50;1.52;;;21.40;47.00;;;;;;5094331;28;20020;-56
2021/04/02 12:33:28;;;;;;;12.63;1.27;;;21.40;47.00;;;;;;5092915;28;20034;-56
2021/04/02 12:35:54;;;;;;;14.48;1.73;;;21.40;47.00;;;;;;5088611;28;20028;-58
2021/04/02 12:38:20;;;;;;;6.00;1.98;;;21.50;47.10;;;;;;5072709;28;20040;-55
2021/04/02 12:40:46;;;;;;;12.85;1.58;;;21.40;47.10;;;;;;5078567;28;20421;-59
2021/04/02 12:43:12;;;;;;;17.92;1.90;;;21.40;47.10;;;;;;5091153;28;20066;-73
2021/04/02 12:45:37;;;;;;;10.00;1.90;;;21.40;47.70;;;;;;5088768;28;20107;-59
2021/04/02 12:48:03;;;;;;;10.20;1.60;;;21.40;47.10;;;;;;5079367;28;20138;-59
2021/04/02 12:50:29;;;;;;;17.20;2.30;;;21.50;47.20;;;;;;5091873;28;20518;-60